Time;durP1;ratioP1;P1;durP2;ratioP2;P2;SDS_P1;SDS_P2;PMS_P1;PMS_P2;Temp;Humidity;BMP_temperature;BMP_pressure;BME280_temperature;BME280_humidity;BME280_pressure;Samples;Min_cycle;Max_cycle;Signal;HPM_P1;HPM_P2
2023/01/23 00:07:29;;;;;;;52.40;26.10;;;;;;;4.25;72.77;100441.27;234060;1199;139717;-69
2023/01/23 00:14:03;;;;;;;46.50;25.60;;;;;;;4.35;72.68;100446.23;233446;1199;140193;-67
2023/01/23 00:19:58;;;;;;;49.20;25.10;;;;;;;4.40;72.47;100460.38;233400;1203;140356;-67
2023/01/23 01:04:30;;;;;;;42.80;22.50;;;;;;;4.31;72.56;100502.67;232066;1211;636447;-68
2023/01/23 01:09:51;;;;;;;;;;;;;;;;;;;;;
2023/01/23 01:16:48;;;;;;;41.20;21.60;;;;;;;4.34;72.51;100511.25;234736;1198;140189;-68
2023/01/23 01:31:07;;;;;;;35.80;20.50;;;;;;;4.33;72.63;100511.44;234161;1200;138712;-68
2023/01/23 01:37:21;;;;;;;33.60;19.80;;;;;;;4.31;72.41;100510.59;234340;1196;138991;-70
2023/01/23 01:43:46;;;;;;;36.20;19.50;;;;;;;4.23;72.61;100517.18;234959;1193;138795;-69
2023/01/23 02:03:02;;;;;;;33.00;18.30;;;;;;;4.29;72.65;100508.49;231548;1211;635285;-65
2023/01/23 02:09:02;;;;;;;33.70;19.50;;;;;;;4.30;72.76;100509.52;234084;1198;138857;-66
2023/01/23 02:15:22;;;;;;;32.00;18.20;;;;;;;4.29;72.56;100521.52;234202;1198;139246;-67
2023/01/23 02:21:19;;;;;;;;;;;;;;;4.31;72.52;100521.30;234290;1196;139809;-67
2023/01/23 02:27:14;;;;;;;29.60;16.90;;;;;;;4.27;72.84;100525.75;234410;1198;125037;-67
2023/01/23 02:33:52;;;;;;;28.90;16.80;;;;;;;4.22;72.65;100534.41;234568;1195;140133;-66
2023/01/23 02:40:09;;;;;;;30.50;16.80;;;;;;;4.19;72.89;100528.29;234441;1195;139397;-68
2023/01/23 02:46:17;;;;;;;29.40;17.40;;;;;;;4.18;72.77;100522.17;234372;1195;139852;-68
2023/01/23 02:52:03;;;;;;;29.70;16.80;;;;;;;4.22;72.65;100521.75;234434;1196;139921;-68
2023/01/23 02:57:40;;;;;;;;;;;;;;;;;;;;;
2023/01/23 03:03:40;;;;;;;;;;;;;;;;;;;;;
2023/01/23 03:09:49;;;;;;;;;;;;;;;;;;;;;
2023/01/23 03:16:05;;;;;;;23.10;13.60;;;;;;;4.31;72.50;100554.15;234588;1198;140445;-67
2023/01/23 03:22:02;;;;;;;24.80;13.80;;;;;;;4.28;72.37;100550.15;234660;1195;138964;-67
2023/01/23 03:30:12;;;;;;;22.30;13.50;;;;;;;4.23;72.63;100551.95;234705;1196;138957;-67
2023/01/23 03:34:06;;;;;;;;;;;;;;;;;;;;;
2023/01/23 03:46:19;;;;;;;;;;;;;;;;;;;;;
2023/01/23 03:52:45;;;;;;;22.30;13.10;;;;;;;4.27;72.74;100568.25;234658;1197;139551;-68
2023/01/23 04:02:48;;;;;;;22.80;13.70;;;;;;;4.49;72.61;100575.89;232378;1209;636132;-65
2023/01/23 04:09:13;;;;;;;26.60;17.30;;;;;;;4.52;72.63;100584.64;234603;1196;138756;-68
2023/01/23 04:15:22;;;;;;;18.40;11.30;;;;;;;4.53;72.54;100594.83;234513;1196;139077;-72
2023/01/23 04:28:52;;;;;;;;;;;;;;;;;;;;;
2023/01/23 04:48:06;;;;;;;18.10;10.30;;;;;;;4.35;72.63;100612.27;235844;1193;139505;-66
2023/01/23 05:08:59;;;;;;;19.00;12.90;;;;;;;4.49;72.69;100609.63;234036;1200;139278;-64
2023/01/23 05:15:00;;;;;;;15.80;9.80;;;;;;;4.44;72.18;100618.30;234083;1196;140137;-65
2023/01/23 05:21:34;;;;;;;15.00;9.90;;;;;;;4.37;72.42;100610.30;234484;1196;139067;-64
2023/01/23 05:28:31;;;;;;;13.50;9.10;;;;;;;4.31;72.25;100617.06;234153;1196;141375;-65
2023/01/23 05:35:17;;;;;;;14.50;9.20;;;;;;;4.25;72.49;100610.97;233822;1199;139254;-65
2023/01/23 05:47:54;;;;;;;11.90;7.80;;;;;;;4.38;72.59;100628.22;234352;1196;138968;-65
2023/01/23 06:00:40;;;;;;;15.90;9.90;;;;;;;4.42;72.25;100647.66;234709;1199;140095;-70
2023/01/23 06:07:57;;;;;;;;;;;;;;;;;;;;;
2023/01/23 06:42:37;;;;;;;15.60;10.50;;;;;;;4.48;72.57;100689.26;234171;1202;140018;-66
2023/01/23 06:56:57;;;;;;;18.20;11.50;;;;;;;4.49;72.28;100697.69;233383;1203;139373;-66
2023/01/23 07:03:35;;;;;;;;;;;;;;;;;;;;;
2023/01/23 07:10:40;;;;;;;;;;;;;;;;;;;;;
2023/01/23 07:24:47;;;;;;;18.40;12.10;;;;;;;4.39;72.67;100718.86;234418;1195;139999;-66
2023/01/23 07:38:41;;;;;;;20.30;12.60;;;;;;;4.56;72.45;100713.60;234343;1196;140191;-67
2023/01/23 07:45:55;;;;;;;;;;;;;;;;;;;;;
2023/01/23 07:52:43;;;;;;;18.70;12.50;;;;;;;4.60;72.45;100730.26;234007;1196;139064;-66
2023/01/23 07:59:57;;;;;;;18.30;11.50;;;;;;;4.61;72.36;100740.09;233858;1199;140015;-65
2023/01/23 08:06:32;;;;;;;;;;;;;;;;;;;;;
2023/01/23 08:12:53;;;;;;;15.90;11.00;;;;;;;4.61;72.77;100762.41;234424;1196;139360;-67
2023/01/23 08:39:15;;;;;;;18.80;12.40;;;;;;;4.82;72.41;100765.71;234699;1195;139786;-64
2023/01/23 09:03:56;;;;;;;60.70;39.40;;;;;;;4.81;72.45;100783.48;231877;1211;636879;-66
2023/01/23 09:10:02;;;;;;;23.40;15.30;;;;;;;4.89;72.67;100780.92;234104;1198;139671;-65
2023/01/23 09:15:11;;;;;;;18.10;11.80;;;;;;;5.02;72.13;100782.02;234048;1199;139756;-66
2023/01/23 09:20:39;;;;;;;17.50;13.00;;;;;;;5.09;72.08;100783.54;234593;1196;138852;-66
2023/01/23 09:27:02;;;;;;;79.70;49.50;;;;;;;5.12;72.12;100766.78;234403;1195;139845;-64
2023/01/23 09:32:35;;;;;;;20.00;13.40;;;;;;;5.23;71.88;100738.84;234429;1196;138896;-64
2023/01/23 09:38:16;;;;;;;12.30;9.40;;;;;;;5.24;71.94;100734.77;234327;1198;138749;-64
2023/01/23 09:44:38;;;;;;;13.20;9.60;;;;;;;5.21;71.62;100736.05;234299;1196;138411;-64
2023/01/23 10:03:22;;;;;;;14.90;10.30;;;;;;;5.23;71.50;100742.02;232691;1211;636253;-63
2023/01/23 10:08:44;;;;;;;15.20;11.70;;;;;;;5.23;71.78;100757.85;234271;1198;139679;-65
2023/01/23 10:15:10;;;;;;;;;;;;;;;;;;;;;
2023/01/23 10:21:03;;;;;;;;;;;;;;;;;;;;;
2023/01/23 10:26:24;;;;;;;14.40;11.60;;;;;;;5.34;71.02;100755.77;234882;1192;139364;-65
2023/01/23 10:32:18;;;;;;;15.00;11.60;;;;;;;5.30;71.24;100759.88;235103;1192;139812;-66
2023/01/23 10:45:04;;;;;;;14.70;11.20;;;;;;;5.23;71.59;100751.88;234776;1196;139222;-65
2023/01/23 10:51:18;;;;;;;16.20;11.60;;;;;;;5.20;71.63;100747.86;235006;1193;138597;-65
2023/01/23 11:03:19;;;;;;;;;;;;;;;;;;;;;
2023/01/23 11:09:21;;;;;;;22.10;15.60;;;;;;;5.29;71.85;100729.80;234318;1196;140410;-63
2023/01/23 11:15:47;;;;;;;21.30;15.50;;;;;;;5.32;72.07;100726.24;234444;1196;139075;-66
2023/01/23 11:21:53;;;;;;;18.70;14.50;;;;;;;5.33;71.73;100717.77;234448;1196;139559;-65
2023/01/23 11:27:43;;;;;;;;;;;;;;;;;;;;;
2023/01/23 11:34:09;;;;;;;19.50;14.50;;;;;;;5.31;71.83;100706.73;234514;1196;138592;-66
2023/01/23 11:40:42;;;;;;;17.90;13.80;;;;;;;5.34;72.02;100701.58;234408;1196;138629;-66
2023/01/23 11:46:34;;;;;;;18.30;14.00;;;;;;;5.34;72.18;100705.45;234137;1195;139020;-66
2023/01/23 11:52:35;;;;;;;16.90;12.10;;;;;;;5.34;72.30;100702.80;234458;1196;139812;-66
2023/01/23 11:59:08;;;;;;;17.40;12.40;;;;;;;5.41;72.31;100699.90;234393;1196;139624;-66
2023/01/23 12:05:20;;;;;;;15.70;11.50;;;;;;;5.52;72.06;100698.67;234243;1196;139644;-65
2023/01/23 12:11:30;;;;;;;;;;;;;;;;;;;;;
2023/01/23 12:17:44;;;;;;;20.50;14.70;;;;;;;5.55;71.83;100693.70;234175;1196;139285;-66
2023/01/23 12:24:02;;;;;;;;;;;;;;;;;;;;;
2023/01/23 12:30:20;;;;;;;22.80;15.60;;;;;;;5.57;72.25;100695.79;234300;1196;139877;-65
2023/01/23 12:36:47;;;;;;;;;;;;;;;;;;;;;
2023/01/23 13:46:35;;;;;;;24.10;16.10;;;;;;;5.51;72.11;100719.29;232520;1212;635583;-64
2023/01/23 13:59:05;;;;;;;;;;;;;;;;;;;;;
2023/01/23 14:05:35;;;;;;;25.80;15.90;;;;;;;5.61;71.89;100725.65;234245;1199;138664;-66
2023/01/23 14:12:17;;;;;;;26.50;17.00;;;;;;;5.60;71.83;100724.09;233640;1203;139512;-65
2023/01/23 14:18:48;;;;;;;26.90;19.70;;;;;;;5.53;72.03;100728.41;233707;1201;139057;-66
2023/01/23 14:25:36;;;;;;;25.10;17.30;;;;;;;5.54;72.03;100731.04;231893;1215;636302;-63
2023/01/23 14:39:16;;;;;;;24.40;18.50;;;;;;;5.55;72.22;100741.05;233813;1200;140077;-63
2023/01/23 14:45:21;;;;;;;;;;;;;;;;;;;;;
2023/01/23 14:50:51;;;;;;;;;;;;;;;;;;;;;
2023/01/23 14:57:13;;;;;;;27.50;18.70;;;;;;;5.50;71.78;100737.96;233962;1199;139205;-64
2023/01/23 15:03:14;;;;;;;24.60;17.70;;;;;;;5.45;71.75;100737.13;234482;1196;138887;-65
2023/01/23 15:09:03;;;;;;;27.90;18.40;;;;;;;5.39;72.00;100739.17;234495;1197;139517;-65
2023/01/23 15:14:52;;;;;;;27.00;17.50;;;;;;;5.34;72.14;100743.81;234388;1196;139466;-64
2023/01/23 15:27:07;;;;;;;;;;;;;;;;;;;;;
2023/01/23 15:32:50;;;;;;;;;;;;;;;;;;;;;
2023/01/23 15:39:17;;;;;;;36.10;21.40;;;;;;;5.34;71.90;100751.02;234585;1197;141952;-65
2023/01/23 15:45:34;;;;;;;30.90;18.70;;;;;;;5.31;72.36;100757.92;234604;1195;139036;-65
2023/01/23 15:50:57;;;;;;;24.70;16.40;;;;;;;5.25;72.35;100763.82;234556;1195;139299;-63
2023/01/23 15:56:44;;;;;;;25.00;17.60;;;;;;;5.21;72.70;100756.64;234537;1194;139441;-65
2023/01/23 16:02:29;;;;;;;25.60;17.00;;;;;;;5.17;72.46;100764.96;234508;1197;138949;-64
2023/01/23 16:08:26;;;;;;;25.40;17.60;;;;;;;5.18;72.78;100766.88;234532;1195;139684;-65
2023/01/23 16:14:11;;;;;;;28.80;18.70;;;;;;;5.25;72.76;100771.72;234564;1195;139866;-64
2023/01/23 16:19:58;;;;;;;103.40;79.10;;;;;;;5.27;72.81;100772.59;234595;1198;139149;-66
2023/01/23 16:25:52;;;;;;;33.70;21.60;;;;;;;5.41;73.09;100777.48;234467;1195;139382;-65
2023/01/23 16:32:13;;;;;;;38.20;26.50;;;;;;;5.39;72.15;100781.05;234474;1199;139813;-65
2023/01/23 16:37:42;;;;;;;28.80;18.60;;;;;;;5.33;72.23;100781.83;234565;1196;138828;-65
2023/01/23 16:43:59;;;;;;;29.80;17.90;;;;;;;5.26;72.21;100786.84;234531;1197;138744;-66
2023/01/23 16:49:10;;;;;;;;;;;;;;;;;;;;;
2023/01/23 16:55:20;;;;;;;;;;;;;;;;;;;;;
2023/01/23 17:18:02;;;;;;;31.50;19.80;;;;;;;5.27;72.64;100790.35;234246;1197;139470;-64
2023/01/23 17:25:12;;;;;;;;;;;;;;;;;;;;;
2023/01/23 17:31:51;;;;;;;29.30;18.10;;;;;;;5.20;72.72;100790.80;233785;1199;139252;-65
2023/01/23 17:43:54;;;;;;;;;;;;;;;;;;;;;
2023/01/23 17:50:33;;;;;;;66.80;43.40;;;;;;;5.46;73.05;100804.02;234628;1197;139666;-65
2023/01/23 18:09:21;;;;;;;;;;;;;;;;;;;;;
2023/01/23 18:15:28;;;;;;;33.30;18.50;;;;;;;5.30;72.68;100807.73;234338;1196;139345;-66
2023/01/23 18:21:39;;;;;;;30.80;17.90;;;;;;;5.27;72.51;100806.20;234359;1196;138622;-64
2023/01/23 18:27:36;;;;;;;386.30;265.40;;;;;;;5.23;72.87;100807.11;234382;1196;140061;-64
2023/01/23 18:33:44;;;;;;;36.10;21.00;;;;;;;5.31;73.09;100813.01;234436;1196;140515;-64
2023/01/23 18:39:31;;;;;;;36.40;20.50;;;;;;;5.34;72.53;100821.78;234411;1199;140180;-63
2023/01/23 18:45:37;;;;;;;37.70;21.30;;;;;;;5.38;72.59;100819.42;234434;1195;142012;-63
2023/01/23 18:52:35;;;;;;;207.50;126.30;;;;;;;5.44;73.50;100816.01;234282;1196;140071;-63
2023/01/23 20:06:19;;;;;;;39.30;23.40;;;;;;;5.82;71.38;100828.73;232826;1209;635578;-65
2023/01/23 20:12:32;;;;;;;40.50;23.30;;;;;;;5.69;71.50;100830.48;234992;1193;139415;-65
2023/01/23 20:19:17;;;;;;;41.90;23.20;;;;;;;5.61;72.03;100835.17;234784;1193;138379;-64
2023/01/23 20:25:52;;;;;;;35.60;21.10;;;;;;;5.49;71.96;100833.91;234817;1193;139140;-65
2023/01/23 20:30:57;;;;;;;38.80;21.70;;;;;;;5.38;72.18;100837.20;234449;1193;139828;-63
2023/01/23 20:37:36;;;;;;;39.60;22.20;;;;;;;5.33;72.43;100832.88;235147;1194;139299;-67
2023/01/23 20:55:28;;;;;;;41.70;23.60;;;;;;;5.42;72.44;100844.20;234742;1193;140529;-64
2023/01/23 21:02:32;;;;;;;;;;;;;;;;;;;;;
2023/01/23 21:08:16;;;;;;;;;;;;;;;;;;;;;
2023/01/23 21:13:36;;;;;;;45.60;25.70;;;;;;;5.31;72.19;100848.38;234873;1193;138748;-65
2023/01/23 21:20:10;;;;;;;41.80;23.80;;;;;;;5.27;72.44;100850.00;235187;1194;151008;-64
2023/01/23 21:25:55;;;;;;;37.90;23.10;;;;;;;5.23;72.47;100851.98;235059;1196;139723;-66
2023/01/23 21:39:04;;;;;;;;;;;;;;;;;;;;;
2023/01/23 21:45:24;;;;;;;38.70;23.30;;;;;;;5.28;72.57;100854.92;235228;1195;139847;-66
2023/01/23 21:51:21;;;;;;;;;;;;;;;;;;;;;
2023/01/23 21:57:59;;;;;;;39.20;23.80;;;;;;;5.32;72.36;100853.64;235008;1193;139331;-65
2023/01/23 22:04:03;;;;;;;;;;;;;;;;;;;;;
2023/01/23 22:09:56;;;;;;;;;;;;;;;;;;;;;
2023/01/23 22:16:45;;;;;;;37.20;22.40;;;;;;;5.22;72.53;100844.61;234901;1196;139174;-64
2023/01/23 22:22:33;;;;;;;39.40;23.00;;;;;;;5.22;72.65;100843.55;234681;1196;139488;-65
2023/01/23 22:29:21;;;;;;;38.10;23.00;;;;;;;5.26;72.42;100837.17;234453;1193;139898;-65
2023/01/23 22:36:04;;;;;;;34.00;21.60;;;;;;;5.32;72.41;100841.16;234963;1193;139613;-67
2023/01/23 22:42:04;;;;;;;38.90;23.00;;;;;;;5.33;72.33;100851.00;234982;1193;139655;-67
2023/01/23 22:54:49;;;;;;;37.20;22.50;;;;;;;5.31;72.15;100855.05;234665;1193;139939;-65
2023/01/23 23:00:53;;;;;;;;;;;;;;;;;;;;;
2023/01/23 23:14:04;;;;;;;34.10;22.00;;;;;;;5.17;72.15;100856.80;235093;1196;139211;-67
2023/01/23 23:20:34;;;;;;;35.10;21.90;;;;;;;5.18;72.34;100853.80;235154;1193;140545;-65
2023/01/23 23:26:50;;;;;;;34.10;20.90;;;;;;;5.26;72.48;100853.19;235308;1192;139749;-68
